HNL weather

Daniel K Inouye International Airport
Honolulu, Hawaii, United States

Public forecast

Using degrees Fahrenheit for public forecast. Weather courtesy of forecast.io.

Current aviation weather report (METAR) for Daniel K Inouye International Airport

Retrieved 2019/10/23 01:53 UTC (27 minutes ago):

PHNL 230153Z 05015KT 10SM FEW026 FEW055 31/19 A2993

Aviation forecast (TAF) for Daniel K Inouye International Airport

Retrieved 2019-10-23 00:22 UTC (2 hours ago):

TAF PHNL 222320Z 2300/2406 06014G22KT P6SM FEW030 SCT050 FM230600 06007KT P6SM SCT025 SCT040 FM232000 07011G17KT P6SM FEW035 SCT050 FM240400 05008KT P6SM FEW030 SCT045